createdAt,value
2023-04-12T00:00:05.133Z,18.42
2023-04-12T00:02:36.589Z,18.40
2023-04-12T00:05:05.454Z,18.25
2023-04-12T00:07:33.986Z,18.14
2023-04-12T00:10:02.278Z,18.03
2023-04-12T00:12:30.545Z,17.93
2023-04-12T00:14:58.779Z,17.87
2023-04-12T00:17:27.058Z,17.74
2023-04-12T00:19:55.311Z,17.62
2023-04-12T00:22:23.675Z,17.52
2023-04-12T00:24:52.120Z,17.50
2023-04-12T00:27:20.389Z,17.46
2023-04-12T00:29:48.900Z,17.45
2023-04-12T00:32:17.179Z,17.46
2023-04-12T00:34:45.502Z,17.39
2023-04-12T00:37:13.754Z,17.31
2023-04-12T00:39:42.156Z,17.33
2023-04-12T00:42:10.420Z,17.41
2023-04-12T00:44:38.867Z,17.49
2023-04-12T00:47:08.998Z,17.50
2023-04-12T00:49:37.377Z,17.40
2023-04-12T00:52:09.435Z,17.29
2023-04-12T00:54:38.389Z,17.14
2023-04-12T00:57:07.206Z,17.15
2023-04-12T00:59:35.480Z,17.20
2023-04-12T01:02:04.322Z,17.13
2023-04-12T01:04:32.953Z,17.10
2023-04-12T01:07:23.288Z,17.01
2023-04-12T01:09:52.308Z,16.89
2023-04-12T01:12:44.645Z,16.79
2023-04-12T01:15:17.976Z,16.69
2023-04-12T01:18:04.964Z,16.59
2023-04-12T01:20:40.210Z,16.44
2023-04-12T01:23:15.910Z,16.36
2023-04-12T01:25:50.088Z,16.34
2023-04-12T01:28:24.970Z,16.34
2023-04-12T01:30:53.755Z,16.35
2023-04-12T01:33:23.244Z,16.29
2023-04-12T01:35:53.722Z,16.19
2023-04-12T01:38:22.696Z,16.13
2023-04-12T01:40:51.038Z,16.08
2023-04-12T01:43:19.265Z,15.99
2023-04-12T01:45:48.160Z,15.93
2023-04-12T01:48:16.908Z,15.84
2023-04-12T01:51:13.651Z,15.74
2023-04-12T01:53:42.045Z,15.64
2023-04-12T01:56:12.278Z,15.59
2023-04-12T01:58:43.519Z,15.55
2023-04-12T02:01:16.297Z,15.49
2023-04-12T02:03:46.094Z,15.42
2023-04-12T02:06:14.967Z,15.26
2023-04-12T02:08:43.497Z,15.11
2023-04-12T02:11:12.870Z,15.03
2023-04-12T02:13:41.785Z,14.98
2023-04-12T02:16:11.580Z,14.93
2023-04-12T02:18:42.250Z,14.87
2023-04-12T02:21:10.574Z,14.76
2023-04-12T02:23:38.791Z,14.71
2023-04-12T02:26:07.309Z,14.66
2023-04-12T02:28:35.633Z,14.60
2023-04-12T02:31:03.870Z,14.53
2023-04-12T02:33:32.387Z,14.47
2023-04-12T02:36:03.357Z,14.39
2023-04-12T02:38:32.345Z,14.34
2023-04-12T02:41:00.558Z,14.29
2023-04-12T02:43:28.791Z,14.27
2023-04-12T02:45:57.072Z,14.23
2023-04-12T02:48:25.335Z,14.22
2023-04-12T02:50:53.544Z,14.15
2023-04-12T02:53:22.609Z,14.09
2023-04-12T02:55:50.906Z,14.03
2023-04-12T02:58:19.846Z,14.01
2023-04-12T03:00:50.789Z,13.95
2023-04-12T03:03:19.254Z,13.89
2023-04-12T03:05:48.450Z,13.81
2023-04-12T03:08:16.871Z,13.74
2023-04-12T03:10:45.120Z,13.70
2023-04-12T03:13:13.327Z,13.66
2023-04-12T03:15:42.349Z,13.65
2023-04-12T03:18:11.420Z,13.59
2023-04-12T03:20:47.361Z,13.55
2023-04-12T03:23:16.179Z,13.48
2023-04-12T03:25:45.209Z,13.38
2023-04-12T03:28:13.437Z,13.30
2023-04-12T03:30:41.761Z,13.26
2023-04-12T03:33:10.031Z,13.25
2023-04-12T03:35:38.263Z,13.21
2023-04-12T03:38:06.818Z,13.22
2023-04-12T03:40:34.990Z,13.20
2023-04-12T03:43:03.224Z,13.14
2023-04-12T03:45:31.619Z,13.12
2023-04-12T03:47:59.954Z,13.06
2023-04-12T03:50:30.442Z,13.06
2023-04-12T03:52:58.663Z,13.05
2023-04-12T03:55:27.121Z,13.01
2023-04-12T03:57:57.503Z,12.97
2023-04-12T04:00:25.801Z,12.94
2023-04-12T04:02:54.075Z,12.92
2023-04-12T04:05:22.442Z,12.86
2023-04-12T04:07:50.989Z,12.84
2023-04-12T04:10:19.198Z,12.77
2023-04-12T04:12:47.452Z,12.78
2023-04-12T04:15:18.507Z,12.79
2023-04-12T04:17:48.396Z,12.84
2023-04-12T04:20:17.030Z,12.86
2023-04-12T04:22:46.534Z,12.82
2023-04-12T04:25:15.756Z,12.82
2023-04-12T04:27:45.779Z,12.76
2023-04-12T04:30:16.271Z,12.78
2023-04-12T04:32:44.585Z,12.75
2023-04-12T04:35:17.630Z,12.74
2023-04-12T04:37:46.233Z,12.71
2023-04-12T04:40:15.284Z,12.65
2023-04-12T04:42:44.106Z,12.54
2023-04-12T04:45:15.950Z,12.44
2023-04-12T04:47:44.189Z,12.37
2023-04-12T04:50:12.551Z,12.26
2023-04-12T04:52:41.760Z,12.23
2023-04-12T04:55:11.775Z,12.23
2023-04-12T04:57:40.153Z,12.21
2023-04-12T05:00:12.528Z,12.15
2023-04-12T05:02:44.026Z,12.16
2023-04-12T05:05:19.566Z,12.17
2023-04-12T05:07:48.236Z,12.16
2023-04-12T05:10:16.614Z,12.15
2023-04-12T05:12:44.869Z,12.12
2023-04-12T05:15:13.356Z,12.07
2023-04-12T05:17:41.844Z,12.09
2023-04-12T05:20:11.655Z,12.11
2023-04-12T05:22:39.908Z,12.10
2023-04-12T05:25:08.511Z,12.07
2023-04-12T05:27:36.845Z,12.03
2023-04-12T05:30:05.438Z,12.03
2023-04-12T05:32:33.682Z,12.02
2023-04-12T05:35:01.884Z,12.00
2023-04-12T05:37:30.083Z,11.99
2023-04-12T05:39:58.396Z,11.95
2023-04-12T05:42:26.673Z,11.91
2023-04-12T05:44:56.841Z,11.86
2023-04-12T05:47:25.164Z,11.83
2023-04-12T05:49:54.989Z,11.84
2023-04-12T05:52:23.265Z,11.84
2023-04-12T05:54:53.441Z,11.83
2023-04-12T05:57:21.792Z,11.83
2023-04-12T05:59:49.960Z,11.80
2023-04-12T06:02:18.276Z,11.77
2023-04-12T06:04:50.573Z,11.72
2023-04-12T06:07:20.334Z,11.65
2023-04-12T06:09:49.081Z,11.56
2023-04-12T06:12:17.532Z,11.48
2023-04-12T06:14:46.331Z,11.48
2023-04-12T06:17:14.541Z,11.49
2023-04-12T06:19:42.886Z,11.49
2023-04-12T06:22:11.275Z,11.48
2023-04-12T06:24:39.494Z,11.46
2023-04-12T06:27:07.707Z,11.42
2023-04-12T06:29:35.937Z,11.40
2023-04-12T06:32:04.223Z,11.37
2023-04-12T06:34:34.063Z,11.32
2023-04-12T06:37:03.059Z,11.26
2023-04-12T06:39:31.353Z,11.23
2023-04-12T06:42:00.426Z,11.21
2023-04-12T06:44:28.877Z,11.16
2023-04-12T06:46:57.176Z,11.11
2023-04-12T06:49:25.499Z,11.07
2023-04-12T06:51:53.754Z,11.05
2023-04-12T06:54:22.125Z,11.02
2023-04-12T06:56:50.350Z,10.99
2023-04-12T06:59:18.645Z,10.94
2023-04-12T07:01:47.096Z,10.90
2023-04-12T07:04:15.579Z,10.85
2023-04-12T07:06:43.812Z,10.75
2023-04-12T07:09:12.100Z,10.71
2023-04-12T07:11:40.474Z,10.72
2023-04-12T07:14:08.731Z,10.69
2023-04-12T07:16:37.003Z,10.63
2023-04-12T07:19:05.318Z,10.57
2023-04-12T07:21:33.697Z,10.54
2023-04-12T07:24:02.469Z,10.47
2023-04-12T07:26:31.986Z,10.42
2023-04-12T07:29:00.569Z,10.41
2023-04-12T07:31:31.383Z,10.36
2023-04-12T07:33:59.786Z,10.35
2023-04-12T07:36:28.331Z,10.39
2023-04-12T07:38:56.991Z,10.45
2023-04-12T07:41:25.441Z,10.47
2023-04-12T07:43:53.700Z,10.48
2023-04-12T07:46:22.148Z,10.47
2023-04-12T07:48:50.496Z,10.50
2023-04-12T07:51:18.767Z,10.57
2023-04-12T07:53:49.245Z,10.58
2023-04-12T07:56:17.514Z,10.60
2023-04-12T07:58:46.049Z,10.61
2023-04-12T08:01:14.440Z,10.65
2023-04-12T08:03:42.965Z,10.68
2023-04-12T08:06:11.427Z,10.67
2023-04-12T08:08:39.745Z,10.66
2023-04-12T08:11:08.233Z,10.63
2023-04-12T08:13:36.776Z,10.58
2023-04-12T08:16:05.458Z,10.57
2023-04-12T08:18:33.743Z,10.60
2023-04-12T08:21:02.127Z,10.59
2023-04-12T08:23:30.985Z,10.58
2023-04-12T08:26:04.236Z,10.58
2023-04-12T08:28:33.488Z,10.56
2023-04-12T08:31:02.171Z,10.56
2023-04-12T08:33:30.484Z,10.53
2023-04-12T08:35:59.510Z,10.51
2023-04-12T08:38:41.481Z,10.47
2023-04-12T08:41:13.736Z,10.48
2023-04-12T08:43:46.843Z,10.45
2023-04-12T08:46:16.583Z,10.43
2023-04-12T08:48:49.663Z,10.43
2023-04-12T08:51:19.495Z,10.43
2023-04-12T08:53:48.037Z,10.41
2023-04-12T08:56:18.146Z,10.40
2023-04-12T08:58:52.374Z,10.39
2023-04-12T09:01:22.077Z,10.37
2023-04-12T09:03:50.532Z,10.36
2023-04-12T09:06:19.051Z,10.36
2023-04-12T09:08:57.954Z,10.32
2023-04-12T09:11:28.961Z,10.32
2023-04-12T09:13:59.068Z,10.30
2023-04-12T09:16:37.202Z,10.27
2023-04-12T09:19:06.642Z,10.23
2023-04-12T09:21:38.836Z,10.18
2023-04-12T09:24:14.848Z,10.13
2023-04-12T09:26:43.396Z,10.12
2023-04-12T09:29:32.315Z,10.08
2023-04-12T09:32:08.381Z,10.04
2023-04-12T09:34:37.760Z,10.01
2023-04-12T09:37:17.111Z,9.95
2023-04-12T09:39:45.504Z,9.95
2023-04-12T09:42:32.227Z,9.94
2023-04-12T09:45:03.597Z,9.96
2023-04-12T09:47:40.229Z,9.97
2023-04-12T09:50:10.429Z,9.95
2023-04-12T09:52:41.701Z,9.95
2023-04-12T09:55:11.911Z,9.96
2023-04-12T09:57:43.353Z,9.94
2023-04-12T10:00:19.072Z,9.92
2023-04-12T10:02:51.501Z,9.89
2023-04-12T10:05:23.170Z,9.86
2023-04-12T10:07:55.217Z,9.87
2023-04-12T10:10:24.228Z,9.89
2023-04-12T10:12:52.696Z,9.84
2023-04-12T10:15:22.774Z,9.84
2023-04-12T10:17:54.142Z,9.85
2023-04-12T10:20:27.099Z,9.84
2023-04-12T10:22:57.311Z,9.87
2023-04-12T10:25:27.812Z,9.85
2023-04-12T10:27:56.198Z,9.82
2023-04-12T10:30:29.120Z,9.82
2023-04-12T10:33:06.802Z,9.80
2023-04-12T10:35:54.572Z,9.82
2023-04-12T10:38:25.821Z,9.81
2023-04-12T10:41:19.414Z,9.76
2023-04-12T10:43:48.943Z,9.74
2023-04-12T10:46:41.809Z,9.73
2023-04-12T10:49:14.445Z,9.74
2023-04-12T10:52:05.303Z,9.70
2023-04-12T10:54:36.265Z,9.69
2023-04-12T10:57:05.618Z,9.69
2023-04-12T10:59:55.089Z,9.66
2023-04-12T11:02:23.619Z,9.66
2023-04-12T11:05:11.335Z,9.68
2023-04-12T11:07:44.101Z,9.68
2023-04-12T11:10:17.912Z,9.67
2023-04-12T11:12:58.128Z,9.64
2023-04-12T11:15:29.572Z,9.64
2023-04-12T11:18:00.583Z,9.63
2023-04-12T11:20:29.247Z,9.62
2023-04-12T11:22:57.709Z,9.63
2023-04-12T11:25:25.970Z,9.62
2023-04-12T11:27:55.758Z,9.61
2023-04-12T11:30:26.268Z,9.63
2023-04-12T11:32:54.461Z,9.60
2023-04-12T11:35:28.282Z,9.55
2023-04-12T11:37:58.452Z,9.54
2023-04-12T11:40:27.419Z,9.53
2023-04-12T11:42:58.445Z,9.55
2023-04-12T11:45:27.508Z,9.53
2023-04-12T11:47:58.853Z,9.55
2023-04-12T11:50:32.309Z,9.55
2023-04-12T11:53:14.445Z,9.58
2023-04-12T11:55:48.628Z,9.58
2023-04-12T11:58:17.918Z,9.60
2023-04-12T12:00:47.880Z,9.60
2023-04-12T12:03:16.777Z,9.57
2023-04-12T12:05:45.492Z,9.57
2023-04-12T12:08:14.530Z,9.57
2023-04-12T12:10:59.854Z,9.56
2023-04-12T12:13:28.724Z,9.56
2023-04-12T12:15:58.385Z,9.52
2023-04-12T12:18:29.674Z,9.49
2023-04-12T12:20:57.853Z,9.47
2023-04-12T12:23:32.987Z,9.46
2023-04-12T12:26:10.488Z,9.46
2023-04-12T12:28:53.759Z,9.44
2023-04-12T12:31:27.444Z,9.43
2023-04-12T12:34:00.740Z,9.43
2023-04-12T12:36:36.927Z,9.37
2023-04-12T12:39:11.733Z,9.32
2023-04-12T12:41:41.493Z,9.29
2023-04-12T12:44:11.816Z,9.26
2023-04-12T12:46:53.415Z,9.21
2023-04-12T12:49:23.641Z,9.18
2023-04-12T12:51:52.916Z,9.14
2023-04-12T12:54:38.693Z,9.11
2023-04-12T12:57:08.227Z,9.07
2023-04-12T12:59:36.516Z,9.03
2023-04-12T13:02:04.807Z,8.94
2023-04-12T13:04:33.144Z,8.88
2023-04-12T13:07:01.461Z,8.86
2023-04-12T13:09:29.714Z,8.84
2023-04-12T13:11:58.187Z,8.82
2023-04-12T13:14:26.491Z,8.78
2023-04-12T13:16:55.016Z,8.77
2023-04-12T13:19:23.306Z,8.70
2023-04-12T13:21:53.228Z,8.66
2023-04-12T13:24:22.102Z,8.60
2023-04-12T13:26:50.280Z,8.54
2023-04-12T13:29:18.631Z,8.49
2023-04-12T13:31:47.083Z,8.45
2023-04-12T13:34:15.546Z,8.44
2023-04-12T13:36:43.741Z,8.44
2023-04-12T13:39:12.050Z,8.46
2023-04-12T13:41:40.261Z,8.49
2023-04-12T13:44:08.562Z,8.51
2023-04-12T13:46:37.766Z,8.52
2023-04-12T13:49:06.198Z,8.53
2023-04-12T13:51:34.537Z,8.51
2023-04-12T13:54:03.005Z,8.45
2023-04-12T13:56:31.342Z,8.40
2023-04-12T13:59:00.003Z,8.37
2023-04-12T14:01:28.235Z,8.36
2023-04-12T14:03:56.647Z,8.32
2023-04-12T14:06:25.037Z,8.31
2023-04-12T14:08:53.357Z,8.33
2023-04-12T14:11:25.852Z,8.30
2023-04-12T14:13:54.419Z,8.30
2023-04-12T14:16:22.689Z,8.29
2023-04-12T14:18:51.032Z,8.35
2023-04-12T14:21:19.359Z,8.40
2023-04-12T14:23:48.034Z,8.48
2023-04-12T14:26:19.606Z,8.53
2023-04-12T14:28:50.830Z,8.51
2023-04-12T14:31:19.250Z,8.58
2023-04-12T14:33:47.903Z,8.62
2023-04-12T14:36:16.198Z,8.66
2023-04-12T14:38:44.889Z,8.73
2023-04-12T14:41:13.864Z,8.81
2023-04-12T14:43:42.672Z,8.88
2023-04-12T14:46:11.832Z,8.97
2023-04-12T14:48:40.132Z,9.08
2023-04-12T14:51:08.362Z,9.15
2023-04-12T14:53:36.655Z,9.22
2023-04-12T14:56:04.920Z,9.33
2023-04-12T14:58:35.318Z,9.47
2023-04-12T15:01:03.527Z,9.57
2023-04-12T15:03:34.287Z,9.67
2023-04-12T15:06:02.629Z,9.82
2023-04-12T15:08:30.847Z,9.93
2023-04-12T15:10:59.138Z,10.01
2023-04-12T15:13:32.932Z,10.11
2023-04-12T15:16:02.758Z,10.23
2023-04-12T15:18:31.332Z,10.33
2023-04-12T15:21:01.638Z,10.39
2023-04-12T15:23:30.441Z,10.45
2023-04-12T15:26:04.520Z,10.51
2023-04-12T15:28:34.183Z,10.62
2023-04-12T15:31:03.090Z,10.72
2023-04-12T15:33:35.453Z,10.79
2023-04-12T15:36:04.671Z,10.88
2023-04-12T15:38:32.924Z,10.98
2023-04-12T15:41:03.131Z,11.08
2023-04-12T15:43:31.348Z,11.18
2023-04-12T15:46:00.643Z,11.29
2023-04-12T15:48:29.148Z,11.42
2023-04-12T15:50:58.238Z,11.52
2023-04-12T15:53:28.343Z,11.59
2023-04-12T15:55:56.839Z,11.68
2023-04-12T15:58:27.839Z,11.79
2023-04-12T16:00:56.039Z,11.93
2023-04-12T16:03:25.630Z,12.00
2023-04-12T16:05:54.672Z,12.02
2023-04-12T16:08:23.854Z,12.08
2023-04-12T16:10:52.112Z,12.21
2023-04-12T16:13:20.424Z,12.28
2023-04-12T16:15:49.194Z,12.34
2023-04-12T16:18:18.157Z,12.39
2023-04-12T16:20:46.748Z,12.43
2023-04-12T16:23:15.547Z,12.55
2023-04-12T16:25:43.811Z,12.64
2023-04-12T16:28:13.409Z,12.71
2023-04-12T16:30:41.861Z,12.80
2023-04-12T16:33:10.659Z,12.90
2023-04-12T16:35:38.972Z,12.94
2023-04-12T16:38:07.501Z,12.99
2023-04-12T16:40:35.775Z,13.12
2023-04-12T16:43:04.828Z,13.21
2023-04-12T16:45:33.236Z,13.17
2023-04-12T16:48:01.986Z,13.21
2023-04-12T16:50:30.345Z,13.32
2023-04-12T16:52:58.514Z,13.37
2023-04-12T16:55:27.056Z,13.39
2023-04-12T16:57:56.895Z,13.45
2023-04-12T17:00:27.858Z,13.54
2023-04-12T17:02:56.785Z,13.55
2023-04-12T17:05:25.626Z,13.54
2023-04-12T17:07:55.907Z,13.57
2023-04-12T17:10:26.161Z,13.66
2023-04-12T17:12:57.515Z,13.73
2023-04-12T17:15:27.673Z,13.78
2023-04-12T17:18:03.249Z,13.83
2023-04-12T17:20:32.302Z,13.84
2023-04-12T17:23:01.295Z,13.91
2023-04-12T17:25:32.128Z,14.02
2023-04-12T17:28:04.190Z,14.06
2023-04-12T17:30:32.638Z,14.20
2023-04-12T17:33:02.389Z,14.30
2023-04-12T17:35:30.869Z,14.35
2023-04-12T17:37:59.112Z,14.41
2023-04-12T17:40:27.969Z,14.49
2023-04-12T17:42:56.222Z,14.57
2023-04-12T17:45:24.899Z,14.62
2023-04-12T17:47:53.167Z,14.71
2023-04-12T17:50:21.443Z,14.77
2023-04-12T17:52:49.954Z,14.80
2023-04-12T17:55:23.802Z,14.87
2023-04-12T17:57:52.061Z,14.82
2023-04-12T18:00:21.551Z,14.75
2023-04-12T18:02:51.026Z,14.79
2023-04-12T18:05:20.057Z,14.83
2023-04-12T18:07:48.740Z,14.82
2023-04-12T18:10:19.734Z,14.77
2023-04-12T18:12:49.850Z,14.82
2023-04-12T18:15:19.146Z,14.76
2023-04-12T18:17:47.751Z,14.90
2023-04-12T18:20:17.283Z,15.09
2023-04-12T18:22:46.082Z,15.04
2023-04-12T18:25:14.414Z,14.98
2023-04-12T18:27:42.896Z,15.08
2023-04-12T18:30:11.312Z,15.20
2023-04-12T18:32:39.623Z,15.34
2023-04-12T18:35:08.566Z,15.57
2023-04-12T18:37:37.867Z,15.59
2023-04-12T18:40:09.746Z,15.36
2023-04-12T18:42:37.996Z,15.20
2023-04-12T18:45:06.677Z,15.25
2023-04-12T18:47:35.062Z,15.47
2023-04-12T18:50:03.299Z,15.44
2023-04-12T18:52:31.502Z,15.51
2023-04-12T18:54:59.771Z,15.62
2023-04-12T18:57:28.069Z,15.71
2023-04-12T18:59:56.478Z,15.68
2023-04-12T19:02:24.928Z,15.87
2023-04-12T19:04:53.213Z,16.01
2023-04-12T19:07:21.626Z,16.08
2023-04-12T19:09:49.891Z,16.15
2023-04-12T19:12:18.101Z,16.19
2023-04-12T19:14:46.557Z,15.95
2023-04-12T19:17:14.805Z,15.55
2023-04-12T19:19:43.249Z,15.35
2023-04-12T19:22:11.812Z,15.40
2023-04-12T19:24:40.090Z,15.50
2023-04-12T19:27:08.672Z,15.63
2023-04-12T19:29:37.020Z,15.84
2023-04-12T19:32:08.007Z,16.09
2023-04-12T19:34:36.533Z,16.20
2023-04-12T19:37:05.644Z,16.13
2023-04-12T19:39:33.928Z,16.14
2023-04-12T19:42:03.073Z,16.23
2023-04-12T19:44:31.621Z,16.24
2023-04-12T19:47:00.489Z,16.35
2023-04-12T19:49:28.879Z,16.61
2023-04-12T19:51:57.421Z,16.81
2023-04-12T19:54:26.506Z,16.83
2023-04-12T19:56:54.991Z,16.86
2023-04-12T19:59:25.544Z,16.97
2023-04-12T20:01:53.792Z,17.15
2023-04-12T20:04:23.090Z,17.30
2023-04-12T20:06:55.484Z,17.36
2023-04-12T20:09:23.723Z,17.32
2023-04-12T20:11:51.966Z,17.38
2023-04-12T20:14:20.673Z,17.45
2023-04-12T20:16:48.917Z,17.37
2023-04-12T20:19:17.327Z,17.33
2023-04-12T20:21:46.281Z,17.26
2023-04-12T20:24:14.878Z,17.36
2023-04-12T20:26:47.418Z,17.41
2023-04-12T20:29:15.895Z,17.45
2023-04-12T20:31:44.222Z,17.54
2023-04-12T20:34:12.457Z,17.72
2023-04-12T20:36:40.687Z,17.79
2023-04-12T20:39:08.875Z,17.87
2023-04-12T20:41:39.375Z,17.96
2023-04-12T20:44:07.639Z,17.99
2023-04-12T20:46:37.366Z,18.12
2023-04-12T20:49:07.590Z,18.12
2023-04-12T20:51:35.885Z,18.21
2023-04-12T20:54:04.222Z,18.40
2023-04-12T20:56:32.468Z,18.56
2023-04-12T20:59:01.515Z,18.51
2023-04-12T21:04:30.839Z,18.48
2023-04-12T21:05:46.157Z,18.53
2023-04-12T21:06:59.132Z,18.66
2023-04-12T21:09:27.548Z,18.81
2023-04-12T21:11:56.964Z,19.01
2023-04-12T21:14:25.335Z,19.18
2023-04-12T21:16:53.529Z,19.02
2023-04-12T21:19:21.734Z,19.09
2023-04-12T21:21:51.915Z,19.26
2023-04-12T21:24:20.078Z,19.47
2023-04-12T21:26:57.230Z,19.43
2023-04-12T21:29:25.920Z,19.30
2023-04-12T21:31:54.190Z,19.35
2023-04-12T21:34:22.669Z,19.45
2023-04-12T21:36:50.905Z,19.46
2023-04-12T21:39:19.492Z,19.47
2023-04-12T21:41:48.141Z,19.50
2023-04-12T21:44:16.326Z,19.58
2023-04-12T21:46:44.720Z,19.50
2023-04-12T21:49:12.940Z,19.39
2023-04-12T21:51:41.130Z,19.38
2023-04-12T21:54:14.349Z,19.39
2023-04-12T21:56:42.676Z,19.52
2023-04-12T21:59:10.981Z,19.33
2023-04-12T22:01:39.314Z,19.48
2023-04-12T22:04:07.750Z,19.66
2023-04-12T22:06:35.960Z,19.96
2023-04-12T22:09:06.105Z,20.05
2023-04-12T22:11:34.353Z,20.25
2023-04-12T22:14:02.617Z,20.55
2023-04-12T22:16:30.805Z,20.63
2023-04-12T22:19:00.098Z,20.64
2023-04-12T22:21:29.109Z,20.79
2023-04-12T22:23:57.600Z,20.63
2023-04-12T22:26:26.218Z,20.49
2023-04-12T22:28:55.116Z,20.37
2023-04-12T22:31:23.644Z,20.32
2023-04-12T22:33:55.746Z,20.37
2023-04-12T22:36:29.285Z,20.45
2023-04-12T22:38:57.817Z,20.24
2023-04-12T22:41:29.146Z,19.89
2023-04-12T22:44:02.093Z,19.84
2023-04-12T22:46:33.481Z,19.76
2023-04-12T22:49:01.867Z,19.62
2023-04-12T22:51:30.348Z,19.48
2023-04-12T22:53:59.165Z,19.32
2023-04-12T22:56:27.997Z,19.19
2023-04-12T22:58:57.305Z,19.19
2023-04-12T23:01:26.073Z,19.07
2023-04-12T23:03:55.019Z,18.86
2023-04-12T23:06:23.257Z,18.72
2023-04-12T23:08:51.684Z,18.68
2023-04-12T23:11:19.943Z,18.47
2023-04-12T23:13:48.276Z,18.32
2023-04-12T23:16:17.085Z,18.05
2023-04-12T23:18:45.940Z,17.83
2023-04-12T23:21:14.170Z,17.85
2023-04-12T23:23:42.627Z,17.88
2023-04-12T23:26:13.947Z,17.86
2023-04-12T23:28:42.343Z,17.78
2023-04-12T23:31:10.666Z,17.71
2023-04-12T23:33:43.894Z,17.70
2023-04-12T23:36:12.594Z,17.74
2023-04-12T23:38:41.480Z,17.56
2023-04-12T23:41:12.694Z,17.44
2023-04-12T23:43:41.541Z,17.42
2023-04-12T23:46:09.909Z,17.48
2023-04-12T23:48:38.175Z,17.54
2023-04-12T23:51:07.011Z,17.46
2023-04-12T23:53:36.077Z,17.35
2023-04-12T23:56:04.426Z,17.26
2023-04-12T23:58:32.604Z,17.13
